sensor_id;sensor_type;location;lat;lon;timestamp;temperature;humidity
23723;DHT22;12042;52.136;5.584;2022-10-28T05:42:40;15.70;99.90
23723;DHT22;12042;52.136;5.584;2022-10-28T05:45:07;15.70;99.90
23723;DHT22;12042;52.136;5.584;2022-10-28T05:47:33;15.70;99.90
23723;DHT22;12042;52.136;5.584;2022-10-28T05:50:01;15.70;99.90
23723;DHT22;12042;52.136;5.584;2022-10-28T05:52:26;15.70;99.90
23723;DHT22;12042;52.136;5.584;2022-10-28T05:54:52;15.70;99.90
23723;DHT22;12042;52.136;5.584;2022-10-28T05:57:17;15.70;99.90
23723;DHT22;12042;52.136;5.584;2022-10-28T05:59:43;15.60;99.90
23723;DHT22;12042;52.136;5.584;2022-10-28T06:02:13;15.60;99.90
23723;DHT22;12042;52.136;5.584;2022-10-28T06:04:39;15.60;99.90
23723;DHT22;12042;52.136;5.584;2022-10-28T06:07:05;15.60;99.90
23723;DHT22;12042;52.136;5.584;2022-10-28T06:09:31;15.60;99.90
23723;DHT22;12042;52.136;5.584;2022-10-28T06:11:59;15.60;99.90
23723;DHT22;12042;52.136;5.584;2022-10-28T06:14:24;15.60;99.90
23723;DHT22;12042;52.136;5.584;2022-10-28T06:16:50;15.60;99.90
23723;DHT22;12042;52.136;5.584;2022-10-28T06:19:16;15.60;99.90
23723;DHT22;12042;52.136;5.584;2022-10-28T06:21:41;15.60;99.90
23723;DHT22;12042;52.136;5.584;2022-10-28T06:24:07;15.60;99.90
23723;DHT22;12042;52.136;5.584;2022-10-28T06:26:33;15.60;99.90
23723;DHT22;12042;52.136;5.584;2022-10-28T06:28:59;15.50;99.90
23723;DHT22;12042;52.136;5.584;2022-10-28T06:31:25;15.50;99.90
23723;DHT22;12042;52.136;5.584;2022-10-28T06:33:50;15.60;99.90
23723;DHT22;12042;52.136;5.584;2022-10-28T06:36:16;15.50;99.90
23723;DHT22;12042;52.136;5.584;2022-10-28T06:38:41;15.50;99.90
23723;DHT22;12042;52.136;5.584;2022-10-28T06:41:07;15.60;99.90
23723;DHT22;12042;52.136;5.584;2022-10-28T06:43:33;15.50;99.90
23723;DHT22;12042;52.136;5.584;2022-10-28T06:46:03;15.50;99.90
23723;DHT22;12042;52.136;5.584;2022-10-28T06:48:29;15.50;99.90
23723;DHT22;12042;52.136;5.584;2022-10-28T06:50:55;15.50;99.90
23723;DHT22;12042;52.136;5.584;2022-10-28T06:53:24;15.60;99.90
23723;DHT22;12042;52.136;5.584;2022-10-28T06:55:54;15.60;99.90
23723;DHT22;12042;52.136;5.584;2022-10-28T06:58:20;15.60;99.90
23723;DHT22;12042;52.136;5.584;2022-10-28T07:00:46;15.60;99.90
23723;DHT22;12042;52.136;5.584;2022-10-28T07:03:11;15.70;99.90
23723;DHT22;12042;52.136;5.584;2022-10-28T07:05:37;15.70;99.90
23723;DHT22;12042;52.136;5.584;2022-10-28T07:08:03;15.70;99.90
23723;DHT22;12042;52.136;5.584;2022-10-28T07:10:29;15.70;99.90
23723;DHT22;12042;52.136;5.584;2022-10-28T07:12:55;15.70;99.90
23723;DHT22;12042;52.136;5.584;2022-10-28T07:15:21;15.70;99.90
23723;DHT22;12042;52.136;5.584;2022-10-28T07:17:57;15.70;99.90
23723;DHT22;12042;52.136;5.584;2022-10-28T07:20:24;15.80;99.90
23723;DHT22;12042;52.136;5.584;2022-10-28T07:23:00;15.80;99.90
23723;DHT22;12042;52.136;5.584;2022-10-28T07:25:27;15.80;99.90
23723;DHT22;12042;52.136;5.584;2022-10-28T07:27:55;15.80;99.90
23723;DHT22;12042;52.136;5.584;2022-10-28T07:30:21;15.80;99.90
23723;DHT22;12042;52.136;5.584;2022-10-28T07:32:47;15.90;99.90
23723;DHT22;12042;52.136;5.584;2022-10-28T07:35:12;15.90;99.90
23723;DHT22;12042;52.136;5.584;2022-10-28T07:37:38;15.90;99.90
23723;DHT22;12042;52.136;5.584;2022-10-28T07:40:05;16.00;99.90
23723;DHT22;12042;52.136;5.584;2022-10-28T07:42:32;16.00;99.90
23723;DHT22;12042;52.136;5.584;2022-10-28T07:44:58;16.00;99.90
23723;DHT22;12042;52.136;5.584;2022-10-28T07:47:23;16.10;99.90
23723;DHT22;12042;52.136;5.584;2022-10-28T07:49:50;16.10;99.90
23723;DHT22;12042;52.136;5.584;2022-10-28T07:52:16;16.10;99.90
23723;DHT22;12042;52.136;5.584;2022-10-28T07:54:41;16.20;99.90
23723;DHT22;12042;52.136;5.584;2022-10-28T07:57:07;16.20;99.90
23723;DHT22;12042;52.136;5.584;2022-10-28T07:59:32;16.30;99.90
23723;DHT22;12042;52.136;5.584;2022-10-28T08:01:58;16.30;99.90
23723;DHT22;12042;52.136;5.584;2022-10-28T08:04:23;16.40;99.90
23723;DHT22;12042;52.136;5.584;2022-10-28T08:06:49;16.40;99.90
23723;DHT22;12042;52.136;5.584;2022-10-28T08:09:34;16.50;99.90
23723;DHT22;12042;52.136;5.584;2022-10-28T08:12:03;16.60;99.90
23723;DHT22;12042;52.136;5.584;2022-10-28T08:14:28;16.60;99.90
23723;DHT22;12042;52.136;5.584;2022-10-28T08:16:54;16.70;99.90
23723;DHT22;12042;52.136;5.584;2022-10-28T08:19:19;16.80;99.90
23723;DHT22;12042;52.136;5.584;2022-10-28T08:21:45;16.80;99.90
23723;DHT22;12042;52.136;5.584;2022-10-28T08:24:11;16.90;99.90
23723;DHT22;12042;52.136;5.584;2022-10-28T08:26:37;17.00;99.90
23723;DHT22;12042;52.136;5.584;2022-10-28T08:29:02;17.00;99.90
23723;DHT22;12042;52.136;5.584;2022-10-28T08:31:28;17.10;99.90
23723;DHT22;12042;52.136;5.584;2022-10-28T08:33:55;17.10;99.90
23723;DHT22;12042;52.136;5.584;2022-10-28T08:36:21;17.10;99.90
23723;DHT22;12042;52.136;5.584;2022-10-28T08:38:46;17.20;99.90
23723;DHT22;12042;52.136;5.584;2022-10-28T08:50:13;17.60;99.90
23723;DHT22;12042;52.136;5.584;2022-10-28T08:55:14;17.80;99.90
23723;DHT22;12042;52.136;5.584;2022-10-28T08:57:54;17.90;99.90
23723;DHT22;12042;52.136;5.584;2022-10-28T09:00:24;17.90;99.90
23723;DHT22;12042;52.136;5.584;2022-10-28T09:03:15;18.00;99.90
23723;DHT22;12042;52.136;5.584;2022-10-28T09:05:44;18.00;99.90
23723;DHT22;12042;52.136;5.584;2022-10-28T09:08:25;18.10;99.90
23723;DHT22;12042;52.136;5.584;2022-10-28T09:14:07;18.20;99.90
23723;DHT22;12042;52.136;5.584;2022-10-28T09:16:46;18.20;99.90
23723;DHT22;12042;52.136;5.584;2022-10-28T09:19:31;18.30;99.90
23723;DHT22;12042;52.136;5.584;2022-10-28T09:22:15;18.30;99.90
23723;DHT22;12042;52.136;5.584;2022-10-28T09:24:55;18.40;99.90
23723;DHT22;12042;52.136;5.584;2022-10-28T09:35:24;18.70;99.90
23723;DHT22;12042;52.136;5.584;2022-10-28T09:38:25;18.80;99.90
23723;DHT22;12042;52.136;5.584;2022-10-28T09:41:01;18.80;99.90
23723;DHT22;12042;52.136;5.584;2022-10-28T09:43:34;18.90;99.90
23723;DHT22;12042;52.136;5.584;2022-10-28T09:46:06;19.00;99.90
23723;DHT22;12042;52.136;5.584;2022-10-28T09:48:40;19.10;99.90
23723;DHT22;12042;52.136;5.584;2022-10-28T09:51:20;19.10;99.90
23723;DHT22;12042;52.136;5.584;2022-10-28T09:53:57;19.20;99.90
23723;DHT22;12042;52.136;5.584;2022-10-28T09:56:24;19.20;99.90
23723;DHT22;12042;52.136;5.584;2022-10-28T09:58:51;19.20;99.90
23723;DHT22;12042;52.136;5.584;2022-10-28T10:01:18;19.30;99.90
23723;DHT22;12042;52.136;5.584;2022-10-28T10:03:48;19.30;99.90
23723;DHT22;12042;52.136;5.584;2022-10-28T10:06:36;19.40;99.90
23723;DHT22;12042;52.136;5.584;2022-10-28T10:09:03;19.40;99.90
23723;DHT22;12042;52.136;5.584;2022-10-28T10:11:37;19.50;99.90
23723;DHT22;12042;52.136;5.584;2022-10-28T10:14:07;19.60;99.90
23723;DHT22;12042;52.136;5.584;2022-10-28T10:19:04;19.80;99.90
23723;DHT22;12042;52.136;5.584;2022-10-28T10:21:43;19.90;99.90
23723;DHT22;12042;52.136;5.584;2022-10-28T10:24:27;19.90;99.90
23723;DHT22;12042;52.136;5.584;2022-10-28T10:26:53;20.00;99.90
23723;DHT22;12042;52.136;5.584;2022-10-28T10:29:20;20.10;99.90
23723;DHT22;12042;52.136;5.584;2022-10-28T10:31:46;20.10;99.90
23723;DHT22;12042;52.136;5.584;2022-10-28T10:34:23;20.20;99.90
23723;DHT22;12042;52.136;5.584;2022-10-28T10:36:51;20.20;99.90
23723;DHT22;12042;52.136;5.584;2022-10-28T10:39:25;20.30;99.90
23723;DHT22;12042;52.136;5.584;2022-10-28T10:41:53;20.30;99.90
23723;DHT22;12042;52.136;5.584;2022-10-28T10:49:27;20.50;99.90
23723;DHT22;12042;52.136;5.584;2022-10-28T10:52:14;20.60;99.90
23723;DHT22;12042;52.136;5.584;2022-10-28T10:54:56;20.60;99.90
23723;DHT22;12042;52.136;5.584;2022-10-28T10:57:23;20.70;99.90
23723;DHT22;12042;52.136;5.584;2022-10-28T10:59:57;20.70;99.90
23723;DHT22;12042;52.136;5.584;2022-10-28T11:02:31;20.70;99.90
23723;DHT22;12042;52.136;5.584;2022-10-28T11:05:01;20.70;99.90
23723;DHT22;12042;52.136;5.584;2022-10-28T11:07:28;20.70;99.90
23723;DHT22;12042;52.136;5.584;2022-10-28T11:09:56;20.80;99.90
23723;DHT22;12042;52.136;5.584;2022-10-28T11:12:30;20.80;99.90
23723;DHT22;12042;52.136;5.584;2022-10-28T11:15:01;20.80;99.90
23723;DHT22;12042;52.136;5.584;2022-10-28T11:17:30;20.70;99.90
23723;DHT22;12042;52.136;5.584;2022-10-28T11:19:58;20.80;99.90
23723;DHT22;12042;52.136;5.584;2022-10-28T11:22:29;20.80;99.90
23723;DHT22;12042;52.136;5.584;2022-10-28T11:25:16;20.80;99.90
23723;DHT22;12042;52.136;5.584;2022-10-28T11:33:57;20.80;99.90
23723;DHT22;12042;52.136;5.584;2022-10-28T11:42:03;20.90;99.90
23723;DHT22;12042;52.136;5.584;2022-10-28T11:44:52;20.90;99.90
23723;DHT22;12042;52.136;5.584;2022-10-28T11:53:16;21.10;99.90
23723;DHT22;12042;52.136;5.584;2022-10-28T11:58:40;21.10;99.90
23723;DHT22;12042;52.136;5.584;2022-10-28T12:10:08;21.40;99.90
23723;DHT22;12042;52.136;5.584;2022-10-28T12:12:43;21.40;99.90
23723;DHT22;12042;52.136;5.584;2022-10-28T12:18:19;21.60;99.90
23723;DHT22;12042;52.136;5.584;2022-10-28T12:23:27;21.70;99.90
23723;DHT22;12042;52.136;5.584;2022-10-28T12:25:55;21.80;99.90
23723;DHT22;12042;52.136;5.584;2022-10-28T12:28:27;21.80;99.90
23723;DHT22;12042;52.136;5.584;2022-10-28T12:30:56;21.70;99.90
23723;DHT22;12042;52.136;5.584;2022-10-28T12:34:04;21.70;99.90
23723;DHT22;12042;52.136;5.584;2022-10-28T12:36:18;21.80;99.90
23723;DHT22;12042;52.136;5.584;2022-10-28T12:38:56;21.80;99.90
23723;DHT22;12042;52.136;5.584;2022-10-28T12:41:26;21.80;99.90
23723;DHT22;12042;52.136;5.584;2022-10-28T12:44:13;21.80;99.90
23723;DHT22;12042;52.136;5.584;2022-10-28T12:50:03;21.60;99.90
23723;DHT22;12042;52.136;5.584;2022-10-28T12:52:31;21.70;99.90
23723;DHT22;12042;52.136;5.584;2022-10-28T12:55:13;21.60;99.90
23723;DHT22;12042;52.136;5.584;2022-10-28T12:57:43;21.60;99.90
23723;DHT22;12042;52.136;5.584;2022-10-28T13:02:42;21.50;99.90
23723;DHT22;12042;52.136;5.584;2022-10-28T13:05:23;21.50;99.90
23723;DHT22;12042;52.136;5.584;2022-10-28T13:11:27;21.40;99.90
23723;DHT22;12042;52.136;5.584;2022-10-28T13:13:56;21.40;99.90
23723;DHT22;12042;52.136;5.584;2022-10-28T13:16:41;21.40;99.90
23723;DHT22;12042;52.136;5.584;2022-10-28T13:24:55;21.40;99.90
23723;DHT22;12042;52.136;5.584;2022-10-28T13:27:22;21.40;99.90
23723;DHT22;12042;52.136;5.584;2022-10-28T13:29:51;21.30;99.90
23723;DHT22;12042;52.136;5.584;2022-10-28T13:32:31;21.40;99.90
23723;DHT22;12042;52.136;5.584;2022-10-28T13:34:58;21.30;99.90
23723;DHT22;12042;52.136;5.584;2022-10-28T13:37:32;21.30;99.90
23723;DHT22;12042;52.136;5.584;2022-10-28T13:39:59;21.20;99.90
23723;DHT22;12042;52.136;5.584;2022-10-28T13:42:45;21.20;99.90
23723;DHT22;12042;52.136;5.584;2022-10-28T13:56:15;21.20;99.90
23723;DHT22;12042;52.136;5.584;2022-10-28T13:58:51;21.10;99.90
23723;DHT22;12042;52.136;5.584;2022-10-28T14:01:52;21.10;99.90
23723;DHT22;12042;52.136;5.584;2022-10-28T14:04:29;21.10;99.90
23723;DHT22;12042;52.136;5.584;2022-10-28T14:07:25;21.10;99.90
23723;DHT22;12042;52.136;5.584;2022-10-28T14:09:53;21.10;99.90
23723;DHT22;12042;52.136;5.584;2022-10-28T14:12:32;21.10;99.90
23723;DHT22;12042;52.136;5.584;2022-10-28T14:17:43;21.10;99.90
23723;DHT22;12042;52.136;5.584;2022-10-28T14:20:34;21.10;99.90
23723;DHT22;12042;52.136;5.584;2022-10-28T14:45:00;20.90;99.90
23723;DHT22;12042;52.136;5.584;2022-10-28T14:48:18;20.90;99.90
23723;DHT22;12042;52.136;5.584;2022-10-28T14:50:49;20.90;99.90
23723;DHT22;12042;52.136;5.584;2022-10-28T14:53:31;20.80;99.90
23723;DHT22;12042;52.136;5.584;2022-10-28T14:56:01;20.80;99.90
23723;DHT22;12042;52.136;5.584;2022-10-28T14:58:30;20.80;99.90
23723;DHT22;12042;52.136;5.584;2022-10-28T15:01:19;20.80;99.90
23723;DHT22;12042;52.136;5.584;2022-10-28T15:03:47;20.70;99.90
23723;DHT22;12042;52.136;5.584;2022-10-28T15:06:30;20.70;99.90
23723;DHT22;12042;52.136;5.584;2022-10-28T15:09:03;20.70;99.90
23723;DHT22;12042;52.136;5.584;2022-10-28T15:11:30;20.60;99.90
23723;DHT22;12042;52.136;5.584;2022-10-28T15:14:11;20.60;99.90
23723;DHT22;12042;52.136;5.584;2022-10-28T15:16:45;20.60;99.90
23723;DHT22;12042;52.136;5.584;2022-10-28T15:19:16;20.50;99.90
23723;DHT22;12042;52.136;5.584;2022-10-28T15:21:42;20.50;99.90
23723;DHT22;12042;52.136;5.584;2022-10-28T15:24:12;20.60;99.90
23723;DHT22;12042;52.136;5.584;2022-10-28T15:26:38;20.50;99.90
23723;DHT22;12042;52.136;5.584;2022-10-28T15:29:04;20.50;99.90
23723;DHT22;12042;52.136;5.584;2022-10-28T15:31:29;20.50;99.90
23723;DHT22;12042;52.136;5.584;2022-10-28T15:33:55;20.40;99.90
23723;DHT22;12042;52.136;5.584;2022-10-28T15:36:23;20.40;99.90
23723;DHT22;12042;52.136;5.584;2022-10-28T15:39:14;20.30;99.90
23723;DHT22;12042;52.136;5.584;2022-10-28T15:41:42;20.30;99.90
23723;DHT22;12042;52.136;5.584;2022-10-28T15:44:35;20.30;99.90
23723;DHT22;12042;52.136;5.584;2022-10-28T15:47:26;20.20;99.90
23723;DHT22;12042;52.136;5.584;2022-10-28T15:50:01;20.20;99.90
23723;DHT22;12042;52.136;5.584;2022-10-28T15:52:36;20.10;99.90
23723;DHT22;12042;52.136;5.584;2022-10-28T15:55:25;20.10;99.90
23723;DHT22;12042;52.136;5.584;2022-10-28T16:03:01;20.00;99.90
23723;DHT22;12042;52.136;5.584;2022-10-28T16:11:04;19.90;99.90
23723;DHT22;12042;52.136;5.584;2022-10-28T16:13:34;19.90;99.90
23723;DHT22;12042;52.136;5.584;2022-10-28T16:18:31;19.90;99.90
23723;DHT22;12042;52.136;5.584;2022-10-28T16:20:58;19.90;99.90
23723;DHT22;12042;52.136;5.584;2022-10-28T16:23:28;19.90;99.90
23723;DHT22;12042;52.136;5.584;2022-10-28T16:25:56;19.90;99.90
23723;DHT22;12042;52.136;5.584;2022-10-28T16:28:26;19.90;99.90
23723;DHT22;12042;52.136;5.584;2022-10-28T16:30:57;19.80;99.90
23723;DHT22;12042;52.136;5.584;2022-10-28T16:33:35;19.80;99.90
23723;DHT22;12042;52.136;5.584;2022-10-28T16:36:01;19.80;99.90
23723;DHT22;12042;52.136;5.584;2022-10-28T16:38:31;19.80;99.90
23723;DHT22;12042;52.136;5.584;2022-10-28T16:40:58;19.80;99.90
23723;DHT22;12042;52.136;5.584;2022-10-28T16:43:25;19.70;99.90
23723;DHT22;12042;52.136;5.584;2022-10-28T16:45:53;19.70;99.90
23723;DHT22;12042;52.136;5.584;2022-10-28T16:48:22;19.70;99.90
23723;DHT22;12042;52.136;5.584;2022-10-28T16:51:02;19.70;99.90
23723;DHT22;12042;52.136;5.584;2022-10-28T16:53:29;19.70;99.90
23723;DHT22;12042;52.136;5.584;2022-10-28T16:55:55;19.70;99.90
23723;DHT22;12042;52.136;5.584;2022-10-28T16:58:26;19.70;99.90
23723;DHT22;12042;52.136;5.584;2022-10-28T17:00:52;19.70;99.90
23723;DHT22;12042;52.136;5.584;2022-10-28T17:03:17;19.70;99.90
23723;DHT22;12042;52.136;5.584;2022-10-28T17:05:43;19.70;99.90
23723;DHT22;12042;52.136;5.584;2022-10-28T17:08:10;19.70;99.90
23723;DHT22;12042;52.136;5.584;2022-10-28T17:10:36;19.70;99.90
23723;DHT22;12042;52.136;5.584;2022-10-28T17:13:14;19.70;99.90
23723;DHT22;12042;52.136;5.584;2022-10-28T17:15:40;19.70;99.90
23723;DHT22;12042;52.136;5.584;2022-10-28T17:18:07;19.70;99.90
23723;DHT22;12042;52.136;5.584;2022-10-28T17:20:33;19.70;99.90
23723;DHT22;12042;52.136;5.584;2022-10-28T17:23:01;19.60;99.90
23723;DHT22;12042;52.136;5.584;2022-10-28T17:25:27;19.60;99.90
23723;DHT22;12042;52.136;5.584;2022-10-28T17:27:53;19.60;99.90
23723;DHT22;12042;52.136;5.584;2022-10-28T17:30:19;19.60;99.90
23723;DHT22;12042;52.136;5.584;2022-10-28T17:32:49;19.60;99.90
23723;DHT22;12042;52.136;5.584;2022-10-28T17:35:14;19.50;99.90
23723;DHT22;12042;52.136;5.584;2022-10-28T17:37:40;19.50;99.90
23723;DHT22;12042;52.136;5.584;2022-10-28T17:40:06;19.50;99.90
23723;DHT22;12042;52.136;5.584;2022-10-28T17:42:33;19.50;99.90
23723;DHT22;12042;52.136;5.584;2022-10-28T17:45:01;19.40;99.90
23723;DHT22;12042;52.136;5.584;2022-10-28T17:47:27;19.40;99.90
23723;DHT22;12042;52.136;5.584;2022-10-28T17:49:53;19.40;99.90
23723;DHT22;12042;52.136;5.584;2022-10-28T17:52:19;19.40;99.90
23723;DHT22;12042;52.136;5.584;2022-10-28T17:54:44;19.30;99.90
23723;DHT22;12042;52.136;5.584;2022-10-28T17:57:10;19.30;99.90
23723;DHT22;12042;52.136;5.584;2022-10-28T17:59:36;19.30;99.90
23723;DHT22;12042;52.136;5.584;2022-10-28T18:02:02;19.30;99.90
23723;DHT22;12042;52.136;5.584;2022-10-28T18:04:27;19.20;99.90
23723;DHT22;12042;52.136;5.584;2022-10-28T18:06:55;19.20;99.90
23723;DHT22;12042;52.136;5.584;2022-10-28T18:09:22;19.20;99.90
23723;DHT22;12042;52.136;5.584;2022-10-28T18:11:49;19.20;99.90
23723;DHT22;12042;52.136;5.584;2022-10-28T18:14:15;19.10;99.90
23723;DHT22;12042;52.136;5.584;2022-10-28T18:16:41;19.10;99.90
23723;DHT22;12042;52.136;5.584;2022-10-28T18:19:08;19.10;99.90
23723;DHT22;12042;52.136;5.584;2022-10-28T18:21:34;19.00;99.90
23723;DHT22;12042;52.136;5.584;2022-10-28T18:24:00;19.00;99.90
23723;DHT22;12042;52.136;5.584;2022-10-28T18:26:32;18.90;99.90
23723;DHT22;12042;52.136;5.584;2022-10-28T18:28:58;18.90;99.90
23723;DHT22;12042;52.136;5.584;2022-10-28T18:31:24;18.80;99.90
23723;DHT22;12042;52.136;5.584;2022-10-28T18:33:49;18.70;99.90
23723;DHT22;12042;52.136;5.584;2022-10-28T18:36:22;18.60;99.90
23723;DHT22;12042;52.136;5.584;2022-10-28T18:38:49;18.60;99.90
23723;DHT22;12042;52.136;5.584;2022-10-28T18:41:22;18.50;99.90
23723;DHT22;12042;52.136;5.584;2022-10-28T18:44:10;18.50;99.90
23723;DHT22;12042;52.136;5.584;2022-10-28T18:46:36;18.40;99.90
23723;DHT22;12042;52.136;5.584;2022-10-28T18:49:02;18.40;99.90
23723;DHT22;12042;52.136;5.584;2022-10-28T18:51:30;18.40;99.90
23723;DHT22;12042;52.136;5.584;2022-10-28T18:53:56;18.30;99.90
23723;DHT22;12042;52.136;5.584;2022-10-28T18:56:24;18.30;99.90
23723;DHT22;12042;52.136;5.584;2022-10-28T18:58:51;18.30;99.90
23723;DHT22;12042;52.136;5.584;2022-10-28T19:01:27;18.30;99.90
23723;DHT22;12042;52.136;5.584;2022-10-28T19:03:54;18.30;99.90
23723;DHT22;12042;52.136;5.584;2022-10-28T19:06:21;18.20;99.90
23723;DHT22;12042;52.136;5.584;2022-10-28T19:08:52;18.20;99.90
23723;DHT22;12042;52.136;5.584;2022-10-28T19:11:19;18.20;99.90
23723;DHT22;12042;52.136;5.584;2022-10-28T19:13:45;18.20;99.90
23723;DHT22;12042;52.136;5.584;2022-10-28T19:16:11;18.20;99.90
23723;DHT22;12042;52.136;5.584;2022-10-28T19:18:37;18.20;99.90
23723;DHT22;12042;52.136;5.584;2022-10-28T19:21:09;18.20;99.90
23723;DHT22;12042;52.136;5.584;2022-10-28T19:23:36;18.10;99.90
23723;DHT22;12042;52.136;5.584;2022-10-28T19:26:04;18.10;99.90
23723;DHT22;12042;52.136;5.584;2022-10-28T19:28:38;18.10;99.90
23723;DHT22;12042;52.136;5.584;2022-10-28T19:31:07;18.00;99.90
23723;DHT22;12042;52.136;5.584;2022-10-28T19:33:33;18.00;99.90
23723;DHT22;12042;52.136;5.584;2022-10-28T19:36:05;17.90;99.90
23723;DHT22;12042;52.136;5.584;2022-10-28T19:38:36;18.00;99.90
23723;DHT22;12042;52.136;5.584;2022-10-28T19:41:06;18.00;99.90
23723;DHT22;12042;52.136;5.584;2022-10-28T19:43:33;17.90;99.90
23723;DHT22;12042;52.136;5.584;2022-10-28T19:46:25;18.00;99.90
23723;DHT22;12042;52.136;5.584;2022-10-28T19:48:54;17.90;99.90
23723;DHT22;12042;52.136;5.584;2022-10-28T19:51:31;17.90;99.90
23723;DHT22;12042;52.136;5.584;2022-10-28T19:54:09;17.90;99.90
23723;DHT22;12042;52.136;5.584;2022-10-28T19:56:37;17.90;99.90
23723;DHT22;12042;52.136;5.584;2022-10-28T19:59:03;17.80;99.90
23723;DHT22;12042;52.136;5.584;2022-10-28T20:01:32;17.80;99.90
23723;DHT22;12042;52.136;5.584;2022-10-28T20:03:57;17.70;99.90
23723;DHT22;12042;52.136;5.584;2022-10-28T20:06:25;17.70;99.90
23723;DHT22;12042;52.136;5.584;2022-10-28T20:08:51;17.60;99.90
23723;DHT22;12042;52.136;5.584;2022-10-28T20:11:18;17.50;99.90
23723;DHT22;12042;52.136;5.584;2022-10-28T20:13:51;17.40;99.90
23723;DHT22;12042;52.136;5.584;2022-10-28T20:16:17;17.40;99.90
23723;DHT22;12042;52.136;5.584;2022-10-28T20:18:43;17.40;99.90
23723;DHT22;12042;52.136;5.584;2022-10-28T20:21:11;17.30;99.90
23723;DHT22;12042;52.136;5.584;2022-10-28T20:23:41;17.30;99.90
23723;DHT22;12042;52.136;5.584;2022-10-28T20:26:08;17.30;99.90
23723;DHT22;12042;52.136;5.584;2022-10-28T20:28:34;17.30;99.90
23723;DHT22;12042;52.136;5.584;2022-10-28T20:31:02;17.20;99.90
23723;DHT22;12042;52.136;5.584;2022-10-28T20:33:28;17.20;99.90
23723;DHT22;12042;52.136;5.584;2022-10-28T20:35:55;17.20;99.90
23723;DHT22;12042;52.136;5.584;2022-10-28T20:38:21;17.10;99.90
23723;DHT22;12042;52.136;5.584;2022-10-28T20:40:49;17.10;99.90
23723;DHT22;12042;52.136;5.584;2022-10-28T20:43:16;17.10;99.90
23723;DHT22;12042;52.136;5.584;2022-10-28T20:45:52;17.10;99.90
23723;DHT22;12042;52.136;5.584;2022-10-28T20:48:18;17.00;99.90
23723;DHT22;12042;52.136;5.584;2022-10-28T20:50:51;17.00;99.90
23723;DHT22;12042;52.136;5.584;2022-10-28T20:53:17;17.00;99.90
23723;DHT22;12042;52.136;5.584;2022-10-28T20:55:44;17.00;99.90
23723;DHT22;12042;52.136;5.584;2022-10-28T20:58:10;17.00;99.90
23723;DHT22;12042;52.136;5.584;2022-10-28T21:00:36;17.00;99.90
23723;DHT22;12042;52.136;5.584;2022-10-28T21:03:02;17.00;99.90
23723;DHT22;12042;52.136;5.584;2022-10-28T21:05:30;17.00;99.90
23723;DHT22;12042;52.136;5.584;2022-10-28T21:07:55;16.90;99.90
23723;DHT22;12042;52.136;5.584;2022-10-28T21:10:21;16.90;99.90
23723;DHT22;12042;52.136;5.584;2022-10-28T21:12:47;16.90;99.90
23723;DHT22;12042;52.136;5.584;2022-10-28T21:15:12;16.90;99.90
23723;DHT22;12042;52.136;5.584;2022-10-28T21:17:38;16.90;99.90
23723;DHT22;12042;52.136;5.584;2022-10-28T21:20:04;16.90;99.90
23723;DHT22;12042;52.136;5.584;2022-10-28T21:22:30;16.90;99.90
23723;DHT22;12042;52.136;5.584;2022-10-28T21:24:55;16.80;99.90
23723;DHT22;12042;52.136;5.584;2022-10-28T21:27:22;16.90;99.90
23723;DHT22;12042;52.136;5.584;2022-10-28T21:29:48;16.80;99.90
23723;DHT22;12042;52.136;5.584;2022-10-28T21:32:13;16.80;99.90
23723;DHT22;12042;52.136;5.584;2022-10-28T21:34:46;16.60;99.90
23723;DHT22;12042;52.136;5.584;2022-10-28T21:37:12;16.50;99.90
